createdAt,value
2022-10-19T00:00:26.221Z,100.00
2022-10-19T00:01:27.668Z,100.00
2022-10-19T00:02:29.178Z,100.00
2022-10-19T00:03:30.840Z,100.00
2022-10-19T00:04:32.270Z,100.00
2022-10-19T00:05:35.057Z,100.00
2022-10-19T00:06:37.705Z,100.00
2022-10-19T00:07:39.209Z,100.00
2022-10-19T00:08:41.691Z,100.00
2022-10-19T00:09:43.810Z,100.00
2022-10-19T00:10:45.243Z,100.00
2022-10-19T00:11:48.533Z,100.00
2022-10-19T00:12:50.179Z,100.00
2022-10-19T00:13:52.288Z,100.00
2022-10-19T00:14:53.742Z,100.00
2022-10-19T00:15:55.184Z,100.00
2022-10-19T00:16:56.639Z,100.00
2022-10-19T00:17:58.037Z,100.00
2022-10-19T00:19:01.613Z,99.67
2022-10-19T00:20:03.702Z,99.73
2022-10-19T00:21:08.579Z,99.45
2022-10-19T00:22:13.046Z,100.00
2022-10-19T00:23:15.633Z,100.00
2022-10-19T00:24:17.310Z,100.00
2022-10-19T00:25:18.799Z,100.00
2022-10-19T00:26:20.375Z,100.00
2022-10-19T00:27:21.803Z,100.00
2022-10-19T00:28:23.294Z,100.00
2022-10-19T00:29:24.747Z,100.00
2022-10-19T00:30:26.169Z,100.00
2022-10-19T00:31:27.749Z,100.00
2022-10-19T00:32:29.195Z,100.00
2022-10-19T00:33:30.625Z,100.00
2022-10-19T00:34:32.062Z,100.00
2022-10-19T00:35:33.500Z,100.00
2022-10-19T00:36:39.156Z,100.00
2022-10-19T00:37:40.576Z,100.00
2022-10-19T00:38:42.239Z,100.00
2022-10-19T00:39:43.773Z,100.00
2022-10-19T00:40:45.863Z,100.00
2022-10-19T00:41:47.994Z,99.77
2022-10-19T00:42:54.400Z,98.86
2022-10-19T00:43:59.413Z,98.26
2022-10-19T00:45:11.152Z,98.50
2022-10-19T00:46:13.388Z,98.71
2022-10-19T00:47:17.142Z,98.51
2022-10-19T00:48:22.528Z,98.90
2022-10-19T00:49:26.835Z,98.47
2022-10-19T00:50:28.308Z,98.54
2022-10-19T00:51:31.889Z,98.56
2022-10-19T00:52:35.111Z,98.70
2022-10-19T00:53:37.011Z,99.31
2022-10-19T00:54:40.783Z,98.80
2022-10-19T00:55:43.098Z,98.32
2022-10-19T00:56:47.504Z,97.88
2022-10-19T00:57:49.026Z,97.67
2022-10-19T00:58:50.497Z,97.29
2022-10-19T00:59:52.192Z,97.37
2022-10-19T01:00:53.809Z,98.34
2022-10-19T01:01:55.533Z,100.00
2022-10-19T01:02:57.959Z,100.00
2022-10-19T01:03:59.741Z,100.00
2022-10-19T01:05:01.774Z,100.00
2022-10-19T01:06:03.676Z,100.00
2022-10-19T01:07:06.696Z,99.94
2022-10-19T01:08:11.460Z,99.82
2022-10-19T01:09:13.087Z,100.00
2022-10-19T01:10:14.848Z,100.00
2022-10-19T01:11:26.807Z,100.00
2022-10-19T01:12:54.850Z,100.00
2022-10-19T01:14:09.979Z,100.00
2022-10-19T01:15:20.764Z,100.00
2022-10-19T01:16:31.944Z,99.12
2022-10-19T01:17:45.043Z,98.66
2022-10-19T01:18:58.089Z,98.02
2022-10-19T01:20:50.157Z,97.50
2022-10-19T01:22:05.318Z,97.59
2022-10-19T01:23:34.081Z,98.09
2022-10-19T01:24:51.861Z,100.00
2022-10-19T01:26:02.936Z,100.00
2022-10-19T01:27:29.004Z,100.00
2022-10-19T01:28:44.253Z,100.00
2022-10-19T01:30:04.532Z,100.00
2022-10-19T01:31:16.963Z,100.00
2022-10-19T01:32:25.096Z,100.00
2022-10-19T01:33:35.774Z,100.00
2022-10-19T01:34:45.023Z,100.00
2022-10-19T01:35:55.541Z,100.00
2022-10-19T01:37:02.449Z,100.00
2022-10-19T01:38:21.914Z,100.00
2022-10-19T01:39:30.435Z,100.00
2022-10-19T01:40:40.371Z,100.00
2022-10-19T01:41:49.267Z,100.00
2022-10-19T01:42:58.672Z,100.00
2022-10-19T01:44:07.770Z,100.00
2022-10-19T01:45:15.930Z,100.00
2022-10-19T01:46:22.862Z,100.00
2022-10-19T01:47:28.100Z,100.00
2022-10-19T01:48:34.526Z,100.00
2022-10-19T01:49:41.302Z,100.00
2022-10-19T01:50:47.594Z,100.00
2022-10-19T01:51:53.868Z,100.00
2022-10-19T01:52:57.153Z,100.00
2022-10-19T01:54:04.734Z,100.00
2022-10-19T01:55:10.342Z,100.00
2022-10-19T01:56:12.703Z,100.00
2022-10-19T01:57:18.674Z,100.00
2022-10-19T01:58:26.255Z,100.00
2022-10-19T01:59:28.803Z,100.00
2022-10-19T02:00:35.211Z,100.00
2022-10-19T02:01:41.292Z,100.00
2022-10-19T02:02:45.960Z,100.00
2022-10-19T02:03:48.678Z,100.00
2022-10-19T02:04:51.705Z,100.00
2022-10-19T02:05:54.451Z,100.00
2022-10-19T02:06:56.821Z,100.00
2022-10-19T02:08:01.110Z,100.00
2022-10-19T02:09:02.555Z,100.00
2022-10-19T02:10:04.643Z,100.00
2022-10-19T02:11:06.454Z,100.00
2022-10-19T02:12:10.828Z,100.00
2022-10-19T02:13:15.000Z,100.00
2022-10-19T02:14:19.097Z,100.00
2022-10-19T02:15:23.527Z,100.00
2022-10-19T02:16:30.164Z,100.00
2022-10-19T02:17:35.416Z,100.00
2022-10-19T02:18:44.663Z,100.00
2022-10-19T02:19:46.133Z,100.00
2022-10-19T02:20:47.986Z,100.00
2022-10-19T02:21:51.418Z,100.00
2022-10-19T02:22:52.880Z,100.00
2022-10-19T02:23:54.494Z,100.00
2022-10-19T02:24:56.048Z,100.00
2022-10-19T02:25:58.311Z,100.00
2022-10-19T02:27:00.552Z,100.00
2022-10-19T02:28:04.149Z,100.00
2022-10-19T02:29:05.953Z,100.00
2022-10-19T02:30:08.910Z,100.00
2022-10-19T02:31:10.697Z,100.00
2022-10-19T02:32:13.492Z,100.00
2022-10-19T02:33:15.616Z,100.00
2022-10-19T02:34:17.158Z,100.00
2022-10-19T02:35:18.852Z,100.00
2022-10-19T02:36:20.830Z,100.00
2022-10-19T02:37:25.529Z,100.00
2022-10-19T02:38:27.566Z,100.00
2022-10-19T02:39:29.314Z,100.00
2022-10-19T02:40:33.434Z,100.00
2022-10-19T02:41:39.295Z,100.00
2022-10-19T02:42:47.030Z,100.00
2022-10-19T02:43:51.428Z,100.00
2022-10-19T02:44:59.939Z,100.00
2022-10-19T02:46:05.567Z,100.00
2022-10-19T02:47:12.412Z,100.00
2022-10-19T02:48:21.661Z,100.00
2022-10-19T02:49:23.565Z,100.00
2022-10-19T02:50:25.409Z,100.00
2022-10-19T02:51:31.520Z,100.00
2022-10-19T02:52:33.002Z,100.00
2022-10-19T02:53:34.423Z,100.00
2022-10-19T02:54:38.879Z,100.00
2022-10-19T02:56:47.252Z,100.00
2022-10-19T02:57:48.723Z,100.00
2022-10-19T02:58:50.146Z,100.00
2022-10-19T02:59:52.492Z,100.00
2022-10-19T03:00:54.690Z,100.00
2022-10-19T03:01:56.145Z,100.00
2022-10-19T03:02:57.606Z,100.00
2022-10-19T03:04:00.397Z,100.00
2022-10-19T03:05:01.997Z,100.00
2022-10-19T03:06:03.636Z,100.00
2022-10-19T03:07:05.177Z,100.00
2022-10-19T03:08:06.586Z,100.00
2022-10-19T03:09:08.139Z,100.00
2022-10-19T03:10:10.034Z,100.00
2022-10-19T03:11:11.448Z,100.00
2022-10-19T03:12:13.924Z,100.00
2022-10-19T03:13:15.355Z,100.00
2022-10-19T03:14:16.821Z,100.00
2022-10-19T03:15:19.067Z,100.00
2022-10-19T03:16:20.489Z,100.00
2022-10-19T03:17:22.047Z,100.00
2022-10-19T03:18:23.547Z,100.00
2022-10-19T03:19:26.415Z,100.00
2022-10-19T03:20:27.844Z,100.00
2022-10-19T03:21:29.300Z,100.00
2022-10-19T03:22:30.721Z,100.00
2022-10-19T03:23:32.172Z,100.00
2022-10-19T03:24:34.003Z,100.00
2022-10-19T03:25:35.481Z,100.00
2022-10-19T03:26:36.947Z,100.00
2022-10-19T03:27:38.365Z,100.00
2022-10-19T03:28:40.139Z,100.00
2022-10-19T03:29:41.621Z,100.00
2022-10-19T03:30:43.073Z,100.00
2022-10-19T03:31:44.555Z,100.00
2022-10-19T03:32:46.090Z,100.00
2022-10-19T03:33:47.551Z,100.00
2022-10-19T03:34:50.287Z,100.00
2022-10-19T03:36:11.839Z,100.00
2022-10-19T03:37:13.243Z,100.00
2022-10-19T03:38:14.726Z,100.00
2022-10-19T03:39:17.151Z,100.00
2022-10-19T03:40:18.589Z,100.00
2022-10-19T03:41:20.606Z,100.00
2022-10-19T03:42:22.030Z,100.00
2022-10-19T03:43:23.455Z,100.00
2022-10-19T03:44:25.044Z,100.00
2022-10-19T03:45:26.498Z,100.00
2022-10-19T03:46:28.233Z,100.00
2022-10-19T03:47:29.830Z,100.00
2022-10-19T03:48:31.292Z,100.00
2022-10-19T03:49:34.643Z,100.00
2022-10-19T03:50:39.543Z,100.00
2022-10-19T03:51:41.130Z,100.00
2022-10-19T03:52:42.579Z,100.00
2022-10-19T03:53:44.569Z,100.00
2022-10-19T03:54:46.300Z,100.00
2022-10-19T03:55:47.837Z,100.00
2022-10-19T03:56:49.258Z,100.00
2022-10-19T03:57:50.684Z,100.00
2022-10-19T03:58:54.238Z,100.00
2022-10-19T03:59:55.677Z,100.00
2022-10-19T04:00:57.151Z,100.00
2022-10-19T04:01:58.588Z,100.00
2022-10-19T04:03:00.056Z,100.00
2022-10-19T04:04:04.341Z,100.00
2022-10-19T04:05:07.056Z,100.00
2022-10-19T04:06:15.759Z,100.00
2022-10-19T04:07:19.753Z,100.00
2022-10-19T04:08:21.207Z,100.00
2022-10-19T04:09:23.129Z,100.00
2022-10-19T04:10:24.791Z,100.00
2022-10-19T04:11:28.548Z,100.00
2022-10-19T04:12:30.052Z,100.00
2022-10-19T04:13:33.311Z,100.00
2022-10-19T04:14:52.388Z,100.00
2022-10-19T04:15:56.739Z,100.00
2022-10-19T04:16:58.210Z,100.00
2022-10-19T04:17:59.688Z,100.00
2022-10-19T04:19:01.340Z,100.00
2022-10-19T04:20:03.023Z,100.00
2022-10-19T04:21:05.701Z,100.00
2022-10-19T04:22:08.471Z,100.00
2022-10-19T04:23:09.963Z,100.00
2022-10-19T04:24:13.659Z,100.00
2022-10-19T04:25:15.221Z,100.00
2022-10-19T04:26:17.070Z,100.00
2022-10-19T04:27:18.537Z,100.00
2022-10-19T04:28:20.053Z,100.00
2022-10-19T04:29:26.481Z,100.00
2022-10-19T04:30:31.206Z,100.00
2022-10-19T04:31:32.788Z,100.00
2022-10-19T04:32:34.208Z,100.00
2022-10-19T04:33:35.747Z,100.00
2022-10-19T04:34:39.893Z,100.00
2022-10-19T04:35:41.705Z,100.00
2022-10-19T04:36:43.189Z,100.00
2022-10-19T04:37:45.987Z,100.00
2022-10-19T04:38:47.693Z,100.00
2022-10-19T04:39:49.167Z,100.00
2022-10-19T04:40:50.624Z,100.00
2022-10-19T04:41:52.058Z,100.00
2022-10-19T04:42:53.486Z,100.00
2022-10-19T04:43:57.287Z,100.00
2022-10-19T04:44:58.742Z,100.00
2022-10-19T04:46:02.960Z,100.00
2022-10-19T04:47:04.451Z,100.00
2022-10-19T04:48:06.188Z,100.00
2022-10-19T04:49:07.701Z,100.00
2022-10-19T04:50:09.712Z,100.00
2022-10-19T04:51:11.804Z,100.00
2022-10-19T04:52:13.249Z,100.00
2022-10-19T04:53:16.115Z,100.00
2022-10-19T04:54:17.586Z,100.00
2022-10-19T04:55:19.162Z,100.00
2022-10-19T04:56:22.583Z,100.00
2022-10-19T04:57:24.059Z,100.00
2022-10-19T04:58:25.828Z,100.00
2022-10-19T04:59:27.250Z,100.00
2022-10-19T05:00:28.663Z,100.00
2022-10-19T05:01:30.985Z,100.00
2022-10-19T05:02:32.642Z,100.00
2022-10-19T05:03:34.126Z,100.00
2022-10-19T05:04:35.589Z,100.00
2022-10-19T05:05:37.034Z,100.00
2022-10-19T05:06:38.487Z,100.00
2022-10-19T05:07:39.949Z,100.00
2022-10-19T05:08:42.790Z,100.00
2022-10-19T05:09:44.291Z,100.00
2022-10-19T05:10:47.708Z,100.00
2022-10-19T05:11:49.448Z,100.00
2022-10-19T05:12:50.886Z,100.00
2022-10-19T05:13:52.395Z,100.00
2022-10-19T05:14:53.816Z,100.00
2022-10-19T05:15:56.574Z,100.00
2022-10-19T05:16:58.109Z,100.00
2022-10-19T05:17:59.770Z,100.00
2022-10-19T05:19:01.253Z,100.00
2022-10-19T05:20:02.823Z,100.00
2022-10-19T05:21:06.174Z,100.00
2022-10-19T05:22:08.632Z,100.00
2022-10-19T05:23:10.055Z,100.00
2022-10-19T05:24:13.116Z,100.00
2022-10-19T05:25:14.768Z,100.00
2022-10-19T05:26:18.183Z,100.00
2022-10-19T05:27:19.666Z,100.00
2022-10-19T05:28:21.138Z,100.00
2022-10-19T05:29:22.683Z,100.00
2022-10-19T05:30:24.132Z,100.00
2022-10-19T05:31:28.297Z,100.00
2022-10-19T05:32:29.793Z,100.00
2022-10-19T05:33:31.221Z,100.00
2022-10-19T05:34:32.656Z,100.00
2022-10-19T05:35:34.089Z,100.00
2022-10-19T05:36:38.009Z,100.00
2022-10-19T05:37:39.427Z,100.00
2022-10-19T05:38:41.286Z,100.00
2022-10-19T05:39:44.050Z,100.00
2022-10-19T05:40:48.305Z,100.00
2022-10-19T05:41:52.916Z,100.00
2022-10-19T05:42:54.369Z,100.00
2022-10-19T05:43:57.258Z,100.00
2022-10-19T05:44:58.688Z,100.00
2022-10-19T05:46:03.789Z,100.00
2022-10-19T05:47:05.257Z,100.00
2022-10-19T05:48:06.873Z,100.00
2022-10-19T05:49:09.929Z,100.00
2022-10-19T05:50:11.384Z,100.00
2022-10-19T05:51:15.804Z,100.00
2022-10-19T05:52:17.237Z,100.00
2022-10-19T05:53:18.690Z,100.00
2022-10-19T05:54:22.668Z,100.00
2022-10-19T05:55:27.809Z,100.00
2022-10-19T05:56:31.578Z,100.00
2022-10-19T05:57:33.359Z,100.00
2022-10-19T05:58:35.905Z,100.00
2022-10-19T05:59:37.377Z,100.00
2022-10-19T06:00:38.804Z,100.00
2022-10-19T06:01:40.428Z,100.00
2022-10-19T06:02:41.943Z,100.00
2022-10-19T06:03:43.437Z,100.00
2022-10-19T06:04:45.037Z,100.00
2022-10-19T06:05:46.477Z,100.00
2022-10-19T06:06:47.919Z,100.00
2022-10-19T06:07:49.367Z,100.00
2022-10-19T06:08:51.843Z,100.00
2022-10-19T06:09:53.262Z,100.00
2022-10-19T06:11:05.099Z,100.00
2022-10-19T06:12:06.539Z,100.00
2022-10-19T06:13:08.005Z,100.00
2022-10-19T06:14:12.877Z,100.00
2022-10-19T06:15:14.442Z,100.00
2022-10-19T06:16:17.565Z,100.00
2022-10-19T06:17:19.006Z,100.00
2022-10-19T06:18:20.466Z,100.00
2022-10-19T06:19:21.900Z,100.00
2022-10-19T06:20:23.391Z,100.00
2022-10-19T06:21:26.744Z,100.00
2022-10-19T06:22:28.219Z,100.00
2022-10-19T06:23:29.886Z,100.00
2022-10-19T06:24:31.476Z,100.00
2022-10-19T06:25:33.129Z,100.00
2022-10-19T06:26:35.928Z,100.00
2022-10-19T06:27:37.702Z,100.00
2022-10-19T06:28:41.115Z,100.00
2022-10-19T06:29:42.551Z,100.00
2022-10-19T06:30:44.082Z,100.00
2022-10-19T06:31:45.573Z,100.00
2022-10-19T06:32:47.039Z,100.00
2022-10-19T06:33:49.691Z,100.00
2022-10-19T06:34:55.744Z,100.00
2022-10-19T06:36:05.335Z,100.00
2022-10-19T06:37:06.791Z,100.00
2022-10-19T06:38:08.217Z,100.00
2022-10-19T06:39:09.643Z,100.00
2022-10-19T06:40:11.539Z,100.00
2022-10-19T06:41:13.251Z,100.00
2022-10-19T06:42:15.995Z,100.00
2022-10-19T06:43:17.425Z,100.00
2022-10-19T06:44:18.963Z,100.00
2022-10-19T06:45:20.392Z,100.00
2022-10-19T06:46:23.440Z,100.00
2022-10-19T06:47:24.960Z,100.00
2022-10-19T06:48:26.401Z,100.00
2022-10-19T06:49:28.142Z,100.00
2022-10-19T06:50:29.568Z,100.00
2022-10-19T06:51:32.227Z,100.00
2022-10-19T06:52:34.237Z,100.00
2022-10-19T06:53:36.786Z,100.00
2022-10-19T06:54:38.211Z,100.00
2022-10-19T06:55:39.618Z,100.00
2022-10-19T06:56:41.105Z,100.00
2022-10-19T06:57:43.981Z,100.00
2022-10-19T06:58:45.584Z,100.00
2022-10-19T06:59:49.048Z,100.00
2022-10-19T07:00:56.505Z,100.00
2022-10-19T07:01:57.950Z,100.00
2022-10-19T07:02:59.413Z,100.00
2022-10-19T07:04:00.891Z,100.00
2022-10-19T07:05:06.893Z,100.00
2022-10-19T07:06:10.275Z,100.00
2022-10-19T07:07:11.806Z,100.00
2022-10-19T07:08:13.332Z,100.00
2022-10-19T07:09:14.823Z,100.00
2022-10-19T07:10:16.629Z,100.00
2022-10-19T07:11:20.748Z,100.00
2022-10-19T07:12:22.196Z,100.00
2022-10-19T07:13:25.719Z,100.00
2022-10-19T07:14:27.137Z,100.00
2022-10-19T07:15:28.584Z,100.00
2022-10-19T07:16:30.044Z,100.00
2022-10-19T07:17:31.765Z,100.00
2022-10-19T07:18:34.707Z,100.00
2022-10-19T07:19:36.183Z,100.00
2022-10-19T07:20:37.886Z,100.00
2022-10-19T07:21:39.325Z,100.00
2022-10-19T07:22:40.730Z,100.00
2022-10-19T07:23:43.508Z,100.00
2022-10-19T07:24:45.502Z,100.00
2022-10-19T07:25:46.924Z,100.00
2022-10-19T07:26:48.369Z,100.00
2022-10-19T07:27:49.821Z,100.00
2022-10-19T07:28:53.531Z,100.00
2022-10-19T07:29:54.960Z,100.00
2022-10-19T07:30:56.636Z,100.00
2022-10-19T07:31:58.070Z,100.00
2022-10-19T07:32:59.492Z,100.00
2022-10-19T07:34:03.033Z,100.00
2022-10-19T07:35:05.517Z,100.00
2022-10-19T07:36:09.141Z,100.00
2022-10-19T07:37:10.626Z,100.00
2022-10-19T07:38:12.112Z,100.00
2022-10-19T07:39:16.917Z,100.00
2022-10-19T07:40:18.368Z,100.00
2022-10-19T07:41:21.834Z,100.00
2022-10-19T07:42:23.291Z,100.00
2022-10-19T07:43:24.751Z,100.00
2022-10-19T07:44:28.842Z,100.00
2022-10-19T07:45:30.480Z,100.00
2022-10-19T07:46:32.503Z,100.00
2022-10-19T07:47:34.825Z,100.00
2022-10-19T07:48:36.720Z,100.00
2022-10-19T07:49:38.188Z,100.00
2022-10-19T07:50:39.640Z,100.00
2022-10-19T07:51:41.154Z,100.00
2022-10-19T07:52:42.979Z,100.00
2022-10-19T07:53:44.752Z,100.00
2022-10-19T07:54:46.199Z,100.00
2022-10-19T07:55:47.613Z,100.00
2022-10-19T07:56:49.059Z,100.00
2022-10-19T07:57:50.527Z,100.00
2022-10-19T07:58:53.476Z,100.00
2022-10-19T07:59:56.315Z,100.00
2022-10-19T08:01:00.232Z,100.00
2022-10-19T08:02:01.711Z,100.00
2022-10-19T08:04:58.909Z,100.00
2022-10-19T08:05:46.154Z,100.00
2022-10-19T08:06:47.624Z,100.00
2022-10-19T08:07:49.067Z,100.00
2022-10-19T08:08:51.347Z,100.00
2022-10-19T08:09:54.118Z,100.00
2022-10-19T08:10:56.627Z,100.00
2022-10-19T08:11:58.149Z,100.00
2022-10-19T08:12:59.567Z,100.00
2022-10-19T08:14:01.507Z,100.00
2022-10-19T08:15:05.162Z,100.00
2022-10-19T08:16:23.091Z,100.00
2022-10-19T08:17:24.538Z,100.00
2022-10-19T08:18:26.368Z,100.00
2022-10-19T08:19:27.847Z,100.00
2022-10-19T08:20:29.329Z,100.00
2022-10-19T08:21:31.151Z,100.00
2022-10-19T08:22:33.052Z,100.00
2022-10-19T08:23:34.737Z,100.00
2022-10-19T08:24:36.189Z,100.00
2022-10-19T08:25:37.654Z,100.00
2022-10-19T08:26:39.872Z,100.00
2022-10-19T08:27:41.600Z,100.00
2022-10-19T08:28:43.109Z,100.00
2022-10-19T08:29:44.560Z,100.00
2022-10-19T08:30:47.349Z,100.00
2022-10-19T08:31:49.635Z,100.00
2022-10-19T08:32:51.204Z,100.00
2022-10-19T08:33:52.638Z,100.00
2022-10-19T08:34:54.101Z,100.00
2022-10-19T08:35:55.515Z,100.00
2022-10-19T08:36:56.969Z,100.00
2022-10-19T08:37:58.868Z,100.00
2022-10-19T08:39:00.276Z,100.00
2022-10-19T08:40:01.721Z,100.00
2022-10-19T08:41:18.385Z,100.00
2022-10-19T08:42:28.303Z,100.00
2022-10-19T08:43:35.766Z,100.00
2022-10-19T08:45:14.031Z,100.00
2022-10-19T08:46:24.630Z,100.00
2022-10-19T08:47:51.998Z,100.00
2022-10-19T08:48:53.454Z,100.00
2022-10-19T08:49:55.290Z,100.00
2022-10-19T08:50:58.984Z,100.00
2022-10-19T08:52:04.431Z,100.00
2022-10-19T08:53:08.215Z,100.00
2022-10-19T08:54:16.805Z,100.00
2022-10-19T08:55:27.537Z,100.00
2022-10-19T08:56:49.990Z,100.00
2022-10-19T08:58:00.143Z,100.00
2022-10-19T08:59:10.464Z,100.00
2022-10-19T09:00:20.791Z,100.00
2022-10-19T09:01:37.534Z,100.00
2022-10-19T09:02:56.713Z,100.00
2022-10-19T09:04:03.532Z,100.00
2022-10-19T09:05:13.420Z,100.00
2022-10-19T09:06:23.135Z,100.00
2022-10-19T09:07:28.927Z,100.00
2022-10-19T09:08:30.575Z,100.00
2022-10-19T09:09:34.006Z,100.00
2022-10-19T09:10:38.674Z,100.00
2022-10-19T09:11:44.623Z,100.00
2022-10-19T09:12:53.850Z,100.00
2022-10-19T09:14:05.376Z,100.00
2022-10-19T09:15:12.744Z,100.00
2022-10-19T09:16:17.304Z,100.00
2022-10-19T09:17:20.391Z,100.00
2022-10-19T09:18:25.507Z,100.00
2022-10-19T09:19:28.377Z,100.00
2022-10-19T09:20:38.187Z,100.00
2022-10-19T09:21:47.606Z,100.00
2022-10-19T09:22:57.974Z,100.00
2022-10-19T09:24:05.396Z,100.00
2022-10-19T09:25:14.119Z,100.00
2022-10-19T09:26:17.864Z,100.00
2022-10-19T09:27:22.529Z,100.00
2022-10-19T09:28:43.377Z,100.00
2022-10-19T09:29:50.804Z,100.00
2022-10-19T09:30:55.815Z,100.00
2022-10-19T09:32:00.367Z,100.00
2022-10-19T09:33:03.412Z,100.00
2022-10-19T09:34:08.595Z,100.00
2022-10-19T09:35:22.662Z,100.00
2022-10-19T09:36:49.436Z,100.00
2022-10-19T09:37:51.384Z,100.00
2022-10-19T09:38:52.945Z,100.00
2022-10-19T09:39:56.007Z,100.00
2022-10-19T09:40:57.730Z,100.00
2022-10-19T09:42:04.643Z,100.00
2022-10-19T09:43:07.218Z,100.00
2022-10-19T09:44:08.703Z,100.00
2022-10-19T09:45:19.719Z,100.00
2022-10-19T09:46:30.808Z,100.00
2022-10-19T09:47:35.228Z,100.00
2022-10-19T09:48:47.494Z,100.00
2022-10-19T09:49:49.107Z,100.00
2022-10-19T09:50:55.564Z,100.00
2022-10-19T09:51:56.990Z,100.00
2022-10-19T09:53:02.627Z,100.00
2022-10-19T09:54:04.090Z,100.00
2022-10-19T09:55:07.156Z,100.00
2022-10-19T09:56:16.775Z,100.00
2022-10-19T09:57:21.030Z,100.00
2022-10-19T09:58:27.990Z,100.00
2022-10-19T09:59:36.406Z,100.00
2022-10-19T10:00:39.744Z,100.00
2022-10-19T10:01:43.532Z,100.00
2022-10-19T10:02:50.079Z,100.00
2022-10-19T10:03:55.851Z,100.00
2022-10-19T10:05:05.094Z,100.00
2022-10-19T10:06:08.312Z,100.00
2022-10-19T10:07:16.073Z,100.00
2022-10-19T10:08:20.600Z,100.00
2022-10-19T10:09:25.716Z,100.00
2022-10-19T10:10:30.640Z,100.00
2022-10-19T10:11:35.559Z,100.00
2022-10-19T10:12:39.671Z,100.00
2022-10-19T10:13:43.889Z,100.00
2022-10-19T10:14:45.481Z,100.00
2022-10-19T10:15:49.381Z,100.00
2022-10-19T10:16:55.193Z,100.00
2022-10-19T10:17:58.104Z,100.00
2022-10-19T10:19:04.844Z,100.00
2022-10-19T10:20:20.299Z,100.00
2022-10-19T10:21:25.754Z,100.00
2022-10-19T10:22:31.121Z,100.00
2022-10-19T10:23:34.034Z,100.00
2022-10-19T10:24:35.481Z,100.00
2022-10-19T10:25:37.061Z,100.00
2022-10-19T10:26:39.948Z,100.00
2022-10-19T10:27:41.414Z,100.00
2022-10-19T10:28:47.728Z,100.00
2022-10-19T10:31:04.379Z,100.00
2022-10-19T10:32:11.951Z,100.00
2022-10-19T10:33:27.105Z,100.00
2022-10-19T10:34:51.976Z,100.00
2022-10-19T10:36:01.059Z,100.00
2022-10-19T10:37:05.596Z,100.00
2022-10-19T10:38:12.527Z,100.00
2022-10-19T10:39:17.291Z,100.00
2022-10-19T10:40:23.790Z,100.00
2022-10-19T10:41:28.513Z,100.00
2022-10-19T10:42:34.915Z,100.00
2022-10-19T10:43:48.836Z,100.00
2022-10-19T10:44:53.123Z,100.00
2022-10-19T10:45:59.377Z,100.00
2022-10-19T10:47:02.343Z,100.00
2022-10-19T10:48:17.443Z,100.00
2022-10-19T10:49:22.458Z,100.00
2022-10-19T10:50:32.098Z,100.00
2022-10-19T10:51:38.733Z,100.00
2022-10-19T10:52:40.495Z,100.00
2022-10-19T10:53:43.047Z,100.00
2022-10-19T10:54:58.700Z,100.00
2022-10-19T10:56:00.215Z,100.00
2022-10-19T10:57:11.561Z,100.00
2022-10-19T10:58:17.162Z,100.00
2022-10-19T10:59:26.344Z,100.00
2022-10-19T11:00:29.515Z,100.00
2022-10-19T11:01:36.450Z,100.00
2022-10-19T11:02:44.315Z,100.00
2022-10-19T11:03:51.081Z,100.00
2022-10-19T11:04:59.184Z,100.00
2022-10-19T11:06:02.102Z,100.00
2022-10-19T11:07:16.923Z,100.00
2022-10-19T11:08:25.051Z,100.00
2022-10-19T11:09:31.183Z,100.00
2022-10-19T11:10:36.985Z,100.00
2022-10-19T11:11:44.532Z,100.00
2022-10-19T11:12:50.768Z,100.00
2022-10-19T11:13:56.683Z,100.00
2022-10-19T11:15:04.321Z,100.00
2022-10-19T11:16:12.635Z,100.00
2022-10-19T11:17:18.718Z,100.00
2022-10-19T11:18:24.878Z,100.00
2022-10-19T11:19:31.888Z,100.00
2022-10-19T11:20:35.668Z,100.00
2022-10-19T11:21:46.187Z,100.00
2022-10-19T11:22:54.814Z,100.00
2022-10-19T11:24:09.329Z,100.00
2022-10-19T11:25:32.286Z,100.00
2022-10-19T11:26:52.154Z,100.00
2022-10-19T11:28:03.892Z,100.00
2022-10-19T11:29:23.523Z,100.00
2022-10-19T11:30:26.198Z,100.00
2022-10-19T11:31:38.658Z,100.00
2022-10-19T11:32:49.723Z,100.00
2022-10-19T11:34:00.074Z,100.00
2022-10-19T11:35:25.165Z,100.00
2022-10-19T11:36:42.476Z,100.00
2022-10-19T11:38:18.244Z,100.00
2022-10-19T11:39:41.013Z,100.00
2022-10-19T11:41:16.493Z,100.00
2022-10-19T11:42:23.775Z,100.00
2022-10-19T11:43:33.584Z,100.00
2022-10-19T11:44:47.386Z,100.00
2022-10-19T11:45:55.651Z,100.00
2022-10-19T11:47:17.980Z,100.00
2022-10-19T11:48:44.107Z,100.00
2022-10-19T11:49:57.185Z,100.00
2022-10-19T11:51:17.361Z,100.00
2022-10-19T11:52:32.768Z,100.00
2022-10-19T11:53:46.452Z,100.00
2022-10-19T11:55:01.997Z,100.00
2022-10-19T11:56:10.300Z,100.00
2022-10-19T11:57:16.393Z,100.00
2022-10-19T11:58:35.042Z,100.00
2022-10-19T11:59:49.667Z,100.00
2022-10-19T12:00:58.898Z,100.00
2022-10-19T12:02:10.497Z,100.00
2022-10-19T12:03:47.725Z,100.00
2022-10-19T12:04:54.299Z,100.00
2022-10-19T12:06:05.391Z,100.00
2022-10-19T12:07:20.984Z,100.00
2022-10-19T12:08:41.667Z,100.00
2022-10-19T12:09:50.859Z,100.00
2022-10-19T12:11:01.452Z,100.00
2022-10-19T12:12:18.636Z,100.00
2022-10-19T12:13:27.176Z,100.00
2022-10-19T12:14:33.823Z,100.00
2022-10-19T12:15:39.588Z,100.00
2022-10-19T12:16:45.681Z,100.00
2022-10-19T12:17:51.622Z,100.00
2022-10-19T12:18:58.945Z,100.00
2022-10-19T12:20:03.528Z,100.00
2022-10-19T12:21:11.533Z,100.00
2022-10-19T12:22:18.277Z,100.00
2022-10-19T12:23:28.745Z,100.00
2022-10-19T12:24:32.569Z,100.00
2022-10-19T12:25:38.668Z,100.00
2022-10-19T12:26:40.837Z,100.00
2022-10-19T12:27:42.903Z,100.00
2022-10-19T12:28:50.514Z,100.00
2022-10-19T12:29:53.045Z,100.00
2022-10-19T12:30:55.494Z,100.00
2022-10-19T12:31:59.541Z,100.00
2022-10-19T12:33:14.389Z,100.00
2022-10-19T12:34:26.185Z,100.00
2022-10-19T12:35:55.352Z,100.00
2022-10-19T12:37:02.874Z,100.00
2022-10-19T12:38:10.839Z,100.00
2022-10-19T12:39:22.768Z,100.00
2022-10-19T12:40:32.849Z,100.00
2022-10-19T12:41:44.216Z,100.00
2022-10-19T12:42:49.421Z,100.00
2022-10-19T12:44:11.598Z,100.00
2022-10-19T12:45:25.980Z,100.00
2022-10-19T12:46:37.316Z,100.00
2022-10-19T12:47:38.574Z,100.00
2022-10-19T12:48:40.013Z,100.00
2022-10-19T12:49:47.533Z,100.00
2022-10-19T12:51:07.645Z,100.00
2022-10-19T12:52:09.588Z,100.00
2022-10-19T12:53:23.458Z,100.00
2022-10-19T12:54:28.022Z,100.00
2022-10-19T12:55:30.804Z,100.00
2022-10-19T12:56:48.327Z,100.00
2022-10-19T12:57:58.793Z,100.00
2022-10-19T12:59:01.623Z,100.00
2022-10-19T13:00:18.012Z,100.00
2022-10-19T13:01:23.022Z,100.00
2022-10-19T13:02:28.955Z,100.00
2022-10-19T13:03:33.069Z,100.00
2022-10-19T13:04:35.862Z,100.00
2022-10-19T13:05:38.665Z,100.00
2022-10-19T13:06:43.500Z,100.00
2022-10-19T13:07:48.684Z,100.00
2022-10-19T13:08:57.243Z,99.38
2022-10-19T13:10:02.707Z,98.90
2022-10-19T13:11:07.320Z,98.54
2022-10-19T13:12:40.783Z,98.59
2022-10-19T13:14:06.838Z,98.97
2022-10-19T13:15:55.421Z,98.96
2022-10-19T13:16:58.665Z,99.38
2022-10-19T13:18:00.525Z,98.34
2022-10-19T13:19:04.747Z,98.22
2022-10-19T13:20:43.642Z,98.61
2022-10-19T13:22:26.937Z,98.75
2022-10-19T13:23:39.676Z,98.47
2022-10-19T13:26:30.214Z,99.46
2022-10-19T13:27:39.153Z,100.00
2022-10-19T13:28:52.823Z,100.00
2022-10-19T13:29:54.452Z,99.40
2022-10-19T13:31:08.172Z,98.61
2022-10-19T13:32:36.411Z,100.00
2022-10-19T13:33:44.878Z,99.71
2022-10-19T13:34:47.008Z,99.73
2022-10-19T13:35:48.871Z,99.44
2022-10-19T13:37:01.940Z,99.80
2022-10-19T13:38:27.693Z,99.42
2022-10-19T13:39:30.021Z,99.31
2022-10-19T13:40:31.540Z,98.24
2022-10-19T13:41:52.670Z,98.39
2022-10-19T13:42:58.133Z,99.23
2022-10-19T13:44:03.027Z,97.90